Hlavní strana
METAR-TAF:

METAR-TAF

Letiště :

Tabarka, Tunisko

zeměpisná šířka: 36-57N, zeměpisná délka: 008-45E, výška: 20 m

Aktuální stav počasí

Zpráva byla vytvořena před 57 minutami, v 05:00 UTC
Východní vítr 7 kt
Teplota 5°C
Vlhkost vzduchu 100%
Tlak 1022 hPa
Viditelnost 10 km a více
Skoro jasno ve výšce 2000 ft

METAR: DTKA 250500Z 08007KT 9999 FEW020 05/05 Q1022 NOSIG

Čas: 06:57 (05:57 UTC)

Předpověď počasí

Zpráva byla vytvořena před 2 hodinami a 57 minutami, v 03:00 UTC
Předpověď platná od 25 v 04 UTC do 25 v 13 UTC
Východní vítr 5 kt
Viditelnost 10 km a více
Skoro jasno ve výšce 2000 ft
Pravděpodobnost 30% :
Dočasný
od 25 v 05 UTC do 25 v 08 UTC
Viditelnost: 3000 m
kouřmo

TAF: DTKA 250300Z 2504/2513 08005KT 9999 FEW020 PROB30 TEMPO 2505/2508 3000 BR

Stav a předpovědi počasí z více než 4 000 letišť (zprávy METAR a TAF).

Červené a žluté tečky na mapě představují dostupné meteorologické stanice.

Když kurzor umístíte na tečku, zobrazí se název stanice.

Pak kliknutím zobrazíte stav a předpověď počasí.

Chcete-li změnit mapu, kliknutím na zelené tlačítko se znaménkem +mapu přiblížíte, kliknutím na zelené tlačítko se znaménkem – mapu oddálíte a kliknutím na zelené šipky přejdete na sousední mapy.


METAR-TAF: